sensor_id;sensor_type;location;lat;lon;timestamp;pressure;altitude;pressure_sealevel;temperature;humidity
81352;BME280;70809;52.184;13.422;2023-06-26T00:00:17;101272.44;;;23.26;56.65
81352;BME280;70809;52.184;13.422;2023-06-26T00:00:48;101268.91;;;23.24;56.63
81352;BME280;70809;52.184;13.422;2023-06-26T00:01:18;101282.34;;;23.25;56.78
81352;BME280;70809;52.184;13.422;2023-06-26T00:01:49;101281.44;;;23.25;56.65
81352;BME280;70809;52.184;13.422;2023-06-26T00:02:19;101274.28;;;23.24;56.77
81352;BME280;70809;52.184;13.422;2023-06-26T00:02:49;101277.00;;;23.24;56.58
81352;BME280;70809;52.184;13.422;2023-06-26T00:03:19;101275.19;;;23.24;56.59
81352;BME280;70809;52.184;13.422;2023-06-26T00:03:50;101272.47;;;23.24;56.67
81352;BME280;70809;52.184;13.422;2023-06-26T00:04:20;101274.25;;;23.25;56.63
81352;BME280;70809;52.184;13.422;2023-06-26T00:04:50;101276.06;;;23.25;56.65
81352;BME280;70809;52.184;13.422;2023-06-26T00:05:21;101263.50;;;23.24;56.73
81352;BME280;70809;52.184;13.422;2023-06-26T00:05:51;101277.88;;;23.24;56.60
81352;BME280;70809;52.184;13.422;2023-06-26T00:06:21;101277.00;;;23.24;56.66
81352;BME280;70809;52.184;13.422;2023-06-26T00:06:52;101274.28;;;23.24;56.77
81352;BME280;70809;52.184;13.422;2023-06-26T00:07:22;101268.91;;;23.24;56.54
81352;BME280;70809;52.184;13.422;2023-06-26T00:07:52;101275.19;;;23.24;56.64
81352;BME280;70809;52.184;13.422;2023-06-26T00:08:23;101278.81;;;23.23;56.67
81352;BME280;70809;52.184;13.422;2023-06-26T00:08:53;101277.00;;;23.24;56.61
81352;BME280;70809;52.184;13.422;2023-06-26T00:09:24;101278.75;;;23.25;56.69
81352;BME280;70809;52.184;13.422;2023-06-26T00:09:54;101279.69;;;23.24;56.60
81352;BME280;70809;52.184;13.422;2023-06-26T00:10:24;101276.06;;;23.25;56.60
81352;BME280;70809;52.184;13.422;2023-06-26T00:10:55;101268.78;;;23.27;56.61
81352;BME280;70809;52.184;13.422;2023-06-26T00:11:25;101274.19;;;23.27;56.58
81352;BME280;70809;52.184;13.422;2023-06-26T00:11:56;101271.50;;;23.27;56.55
81352;BME280;70809;52.184;13.422;2023-06-26T00:12:26;101276.88;;;23.28;56.53
81352;BME280;70809;52.184;13.422;2023-06-26T00:12:56;101275.00;;;23.30;56.39
81352;BME280;70809;52.184;13.422;2023-06-26T00:13:27;101271.34;;;23.31;56.36
81352;BME280;70809;52.184;13.422;2023-06-26T00:13:58;101270.47;;;23.31;56.42
81352;BME280;70809;52.184;13.422;2023-06-26T00:14:29;101273.16;;;23.31;56.49
81352;BME280;70809;52.184;13.422;2023-06-26T00:14:59;101273.16;;;23.31;56.45
81352;BME280;70809;52.184;13.422;2023-06-26T00:15:29;101273.16;;;23.31;56.41
81352;BME280;70809;52.184;13.422;2023-06-26T00:16:00;101271.41;;;23.30;56.39
81352;BME280;70809;52.184;13.422;2023-06-26T00:16:30;101270.66;;;23.25;56.39
81352;BME280;70809;52.184;13.422;2023-06-26T00:17:00;101274.28;;;23.24;56.57
81352;BME280;70809;52.184;13.422;2023-06-26T00:17:31;101267.16;;;23.23;56.68
81352;BME280;70809;52.184;13.422;2023-06-26T00:18:01;101267.09;;;23.24;56.60
81352;BME280;70809;52.184;13.422;2023-06-26T00:18:31;101270.72;;;23.23;56.68
81352;BME280;70809;52.184;13.422;2023-06-26T00:19:02;101271.53;;;23.25;56.64
81352;BME280;70809;52.184;13.422;2023-06-26T00:19:32;101263.47;;;23.25;56.44
81352;BME280;70809;52.184;13.422;2023-06-26T00:20:03;101263.47;;;23.25;56.50
81352;BME280;70809;52.184;13.422;2023-06-26T00:20:34;101262.53;;;23.26;56.63
81352;BME280;70809;52.184;13.422;2023-06-26T00:21:04;101269.72;;;23.26;56.58
81352;BME280;70809;52.184;13.422;2023-06-26T00:21:34;101261.66;;;23.26;56.51
81352;BME280;70809;52.184;13.422;2023-06-26T00:22:05;101261.66;;;23.26;56.43
81352;BME280;70809;52.184;13.422;2023-06-26T00:22:35;101261.66;;;23.26;56.47
81352;BME280;70809;52.184;13.422;2023-06-26T00:23:05;101263.47;;;23.25;56.44
81352;BME280;70809;52.184;13.422;2023-06-26T00:23:36;101266.09;;;23.27;56.54
81352;BME280;70809;52.184;13.422;2023-06-26T00:24:06;101262.53;;;23.26;56.59
81352;BME280;70809;52.184;13.422;2023-06-26T00:24:36;101262.53;;;23.26;56.55
81352;BME280;70809;52.184;13.422;2023-06-26T00:25:07;101264.28;;;23.27;56.58
81352;BME280;70809;52.184;13.422;2023-06-26T00:25:37;101266.06;;;23.28;56.45
81352;BME280;70809;52.184;13.422;2023-06-26T00:26:08;101261.59;;;23.27;56.49
81352;BME280;70809;52.184;13.422;2023-06-26T00:26:38;101266.97;;;23.27;56.54
81352;BME280;70809;52.184;13.422;2023-06-26T00:27:08;101265.16;;;23.28;56.49
81352;BME280;70809;52.184;13.422;2023-06-26T00:27:39;101266.97;;;23.29;56.46
81352;BME280;70809;52.184;13.422;2023-06-26T00:28:09;101266.97;;;23.27;56.44
81352;BME280;70809;52.184;13.422;2023-06-26T00:28:40;101266.97;;;23.27;56.51
81352;BME280;70809;52.184;13.422;2023-06-26T00:29:11;101264.28;;;23.27;56.31
81352;BME280;70809;52.184;13.422;2023-06-26T00:29:42;101254.38;;;23.28;56.48
81352;BME280;70809;52.184;13.422;2023-06-26T00:30:12;101254.44;;;23.26;56.45
81352;BME280;70809;52.184;13.422;2023-06-26T00:30:42;101256.19;;;23.27;56.43
81352;BME280;70809;52.184;13.422;2023-06-26T00:31:13;101260.72;;;23.27;56.49
81352;BME280;70809;52.184;13.422;2023-06-26T00:31:43;101249.91;;;23.27;56.45
81352;BME280;70809;52.184;13.422;2023-06-26T00:32:14;101255.31;;;23.27;56.52
81352;BME280;70809;52.184;13.422;2023-06-26T00:32:44;101258.00;;;23.27;56.46
81352;BME280;70809;52.184;13.422;2023-06-26T00:33:14;101259.81;;;23.26;56.45
81352;BME280;70809;52.184;13.422;2023-06-26T00:33:44;101251.69;;;23.28;56.37
81352;BME280;70809;52.184;13.422;2023-06-26T00:34:15;101263.41;;;23.27;56.48
81352;BME280;70809;52.184;13.422;2023-06-26T00:34:45;101256.19;;;23.27;56.41
81352;BME280;70809;52.184;13.422;2023-06-26T00:35:16;101257.06;;;23.28;56.48
81352;BME280;70809;52.184;13.422;2023-06-26T00:35:46;101252.63;;;23.27;56.37
81352;BME280;70809;52.184;13.422;2023-06-26T00:36:16;101258.00;;;23.27;56.39
81352;BME280;70809;52.184;13.422;2023-06-26T00:36:47;101258.94;;;23.26;56.34
81352;BME280;70809;52.184;13.422;2023-06-26T00:37:17;101252.63;;;23.27;56.45
81352;BME280;70809;52.184;13.422;2023-06-26T00:37:47;101264.28;;;23.27;56.40
81352;BME280;70809;52.184;13.422;2023-06-26T00:38:18;101250.84;;;23.26;56.58
81352;BME280;70809;52.184;13.422;2023-06-26T00:38:48;101260.72;;;23.27;56.56
81352;BME280;70809;52.184;13.422;2023-06-26T00:39:18;101253.56;;;23.26;56.59
81352;BME280;70809;52.184;13.422;2023-06-26T00:39:49;101262.56;;;23.25;56.54
81352;BME280;70809;52.184;13.422;2023-06-26T00:40:19;101259.88;;;23.25;56.54
81352;BME280;70809;52.184;13.422;2023-06-26T00:40:49;101253.56;;;23.26;56.44
81352;BME280;70809;52.184;13.422;2023-06-26T00:41:20;101254.38;;;23.28;56.60
81352;BME280;70809;52.184;13.422;2023-06-26T00:41:50;101249.91;;;23.27;56.62
81352;BME280;70809;52.184;13.422;2023-06-26T00:42:20;101249.91;;;23.28;56.38
81352;BME280;70809;52.184;13.422;2023-06-26T00:42:51;101256.16;;;23.29;56.40
81352;BME280;70809;52.184;13.422;2023-06-26T00:43:21;101250.78;;;23.29;56.23
81352;BME280;70809;52.184;13.422;2023-06-26T00:43:51;101251.59;;;23.31;56.17
81352;BME280;70809;52.184;13.422;2023-06-26T00:44:23;101245.28;;;23.32;56.35
81352;BME280;70809;52.184;13.422;2023-06-26T00:44:54;101255.19;;;23.31;56.26
81352;BME280;70809;52.184;13.422;2023-06-26T00:45:24;101256.06;;;23.32;56.21
81352;BME280;70809;52.184;13.422;2023-06-26T00:45:55;101250.66;;;23.32;56.20
81352;BME280;70809;52.184;13.422;2023-06-26T00:46:25;101249.84;;;23.30;56.18
81352;BME280;70809;52.184;13.422;2023-06-26T00:46:56;101251.69;;;23.28;56.29
81352;BME280;70809;52.184;13.422;2023-06-26T00:47:26;101250.84;;;23.26;56.49
81352;BME280;70809;52.184;13.422;2023-06-26T00:47:57;101250.84;;;23.26;56.37
81352;BME280;70809;52.184;13.422;2023-06-26T00:48:27;101245.47;;;23.26;56.49
81352;BME280;70809;52.184;13.422;2023-06-26T00:48:59;101249.09;;;23.25;56.57
81352;BME280;70809;52.184;13.422;2023-06-26T00:49:30;101245.53;;;23.24;56.38
81352;BME280;70809;52.184;13.422;2023-06-26T00:50:00;101250.84;;;23.26;56.53
81352;BME280;70809;52.184;13.422;2023-06-26T00:50:31;101242.81;;;23.24;56.50
81352;BME280;70809;52.184;13.422;2023-06-26T00:51:02;101249.97;;;23.25;56.33
81352;BME280;70809;52.184;13.422;2023-06-26T00:51:32;101249.09;;;23.25;56.49
81352;BME280;70809;52.184;13.422;2023-06-26T00:52:04;101249.09;;;23.25;56.37
81352;BME280;70809;52.184;13.422;2023-06-26T00:52:34;101255.44;;;23.24;56.37
81352;BME280;70809;52.184;13.422;2023-06-26T00:53:04;101251.78;;;23.25;56.51
81352;BME280;70809;52.184;13.422;2023-06-26T00:53:35;101258.13;;;23.24;56.52
81352;BME280;70809;52.184;13.422;2023-06-26T00:54:06;101262.56;;;23.25;56.44
81352;BME280;70809;52.184;13.422;2023-06-26T00:54:36;101260.81;;;23.24;56.52
81352;BME280;70809;52.184;13.422;2023-06-26T00:55:07;101247.34;;;23.24;56.35
81352;BME280;70809;52.184;13.422;2023-06-26T00:55:38;101249.16;;;23.23;56.42
81352;BME280;70809;52.184;13.422;2023-06-26T00:56:09;101247.34;;;23.24;56.55
81352;BME280;70809;52.184;13.422;2023-06-26T00:56:40;101250.91;;;23.24;56.50
81352;BME280;70809;52.184;13.422;2023-06-26T00:57:11;101255.44;;;23.24;56.54
81352;BME280;70809;52.184;13.422;2023-06-26T00:57:42;101247.34;;;23.22;56.61
81352;BME280;70809;52.184;13.422;2023-06-26T00:58:12;101246.47;;;23.22;56.53
81352;BME280;70809;52.184;13.422;2023-06-26T00:58:42;101256.38;;;23.23;56.50
81352;BME280;70809;52.184;13.422;2023-06-26T00:59:13;101252.75;;;23.22;56.55
81352;BME280;70809;52.184;13.422;2023-06-26T00:59:45;101254.53;;;23.23;56.51
81352;BME280;70809;52.184;13.422;2023-06-26T01:00:16;101257.25;;;23.22;56.43
81352;BME280;70809;52.184;13.422;2023-06-26T01:00:46;101251.00;;;23.21;56.55
81352;BME280;70809;52.184;13.422;2023-06-26T01:01:16;101254.56;;;23.22;56.41
81352;BME280;70809;52.184;13.422;2023-06-26T01:01:47;101254.56;;;23.22;56.45
81352;BME280;70809;52.184;13.422;2023-06-26T01:02:17;101249.22;;;23.20;56.54
81352;BME280;70809;52.184;13.422;2023-06-26T01:02:47;101255.50;;;23.21;56.49
81352;BME280;70809;52.184;13.422;2023-06-26T01:03:18;101253.69;;;23.21;56.56
81352;BME280;70809;52.184;13.422;2023-06-26T01:03:49;101249.19;;;23.22;56.54
81352;BME280;70809;52.184;13.422;2023-06-26T01:04:20;101254.56;;;23.22;56.53
81352;BME280;70809;52.184;13.422;2023-06-26T01:04:51;101255.44;;;23.22;56.37
81352;BME280;70809;52.184;13.422;2023-06-26T01:05:22;101254.56;;;23.22;56.50
81352;BME280;70809;52.184;13.422;2023-06-26T01:05:54;101246.47;;;23.22;56.42
81352;BME280;70809;52.184;13.422;2023-06-26T01:06:27;101244.72;;;23.21;56.46
81352;BME280;70809;52.184;13.422;2023-06-26T01:06:59;101251.94;;;23.20;56.40
81352;BME280;70809;52.184;13.422;2023-06-26T01:07:29;101250.09;;;23.21;56.56
81352;BME280;70809;52.184;13.422;2023-06-26T01:08:00;101245.66;;;23.20;56.49
81352;BME280;70809;52.184;13.422;2023-06-26T01:08:31;101243.78;;;23.22;56.59
81352;BME280;70809;52.184;13.422;2023-06-26T01:09:02;101242.03;;;23.21;56.36
81352;BME280;70809;52.184;13.422;2023-06-26T01:09:34;101253.69;;;23.21;56.35
81352;BME280;70809;52.184;13.422;2023-06-26T01:10:06;101249.19;;;23.22;56.33
81352;BME280;70809;52.184;13.422;2023-06-26T01:10:36;101242.97;;;23.20;56.44
81352;BME280;70809;52.184;13.422;2023-06-26T01:11:07;101237.56;;;23.20;56.55
81352;BME280;70809;52.184;13.422;2023-06-26T01:11:37;101244.72;;;23.21;56.42
81352;BME280;70809;52.184;13.422;2023-06-26T01:12:08;101243.78;;;23.22;56.56
81352;BME280;70809;52.184;13.422;2023-06-26T01:12:38;101235.66;;;23.23;56.41
81352;BME280;70809;52.184;13.422;2023-06-26T01:13:09;101235.66;;;23.23;56.40
81352;BME280;70809;52.184;13.422;2023-06-26T01:13:40;101242.81;;;23.24;56.33
81352;BME280;70809;52.184;13.422;2023-06-26T01:14:11;101250.84;;;23.26;56.33
81352;BME280;70809;52.184;13.422;2023-06-26T01:14:41;101244.59;;;23.25;56.25
81352;BME280;70809;52.184;13.422;2023-06-26T01:15:13;101245.47;;;23.26;56.21
81352;BME280;70809;52.184;13.422;2023-06-26T01:15:43;101240.94;;;23.26;56.16
81352;BME280;70809;52.184;13.422;2023-06-26T01:16:14;101239.13;;;23.27;56.22
81352;BME280;70809;52.184;13.422;2023-06-26T01:16:46;101247.53;;;23.18;56.33
81352;BME280;70809;52.184;13.422;2023-06-26T01:17:16;101233.06;;;23.20;56.42
81352;BME280;70809;52.184;13.422;2023-06-26T01:17:47;101243.84;;;23.20;56.30
81352;BME280;70809;52.184;13.422;2023-06-26T01:18:18;101234.88;;;23.20;56.42
81352;BME280;70809;52.184;13.422;2023-06-26T01:18:48;101239.38;;;23.19;56.35
81352;BME280;70809;52.184;13.422;2023-06-26T01:19:23;101246.59;;;23.19;56.41
81352;BME280;70809;52.184;13.422;2023-06-26T01:19:53;101232.22;;;23.18;56.41
81352;BME280;70809;52.184;13.422;2023-06-26T01:20:24;101240.25;;;23.20;56.56
81352;BME280;70809;52.184;13.422;2023-06-26T01:20:55;101240.25;;;23.20;56.49
81352;BME280;70809;52.184;13.422;2023-06-26T01:21:26;101239.38;;;23.19;56.36
81352;BME280;70809;52.184;13.422;2023-06-26T01:22:00;101235.75;;;23.20;56.41
81352;BME280;70809;52.184;13.422;2023-06-26T01:22:37;101237.63;;;23.18;56.49
81352;BME280;70809;52.184;13.422;2023-06-26T01:23:20;101233.19;;;23.16;56.50
81352;BME280;70809;52.184;13.422;2023-06-26T01:23:58;101238.56;;;23.17;56.48
81352;BME280;70809;52.184;13.422;2023-06-26T01:24:33;101237.63;;;23.18;56.52
81352;BME280;70809;52.184;13.422;2023-06-26T01:25:12;101235.88;;;23.17;56.50
81352;BME280;70809;52.184;13.422;2023-06-26T01:25:56;101243.97;;;23.16;56.44
81352;BME280;70809;52.184;13.422;2023-06-26T01:26:32;101235.81;;;23.19;56.33
81352;BME280;70809;52.184;13.422;2023-06-26T01:27:05;101234.03;;;23.18;56.41
81352;BME280;70809;52.184;13.422;2023-06-26T01:27:36;101233.13;;;23.19;56.46
81352;BME280;70809;52.184;13.422;2023-06-26T01:28:08;101237.63;;;23.18;56.38
81352;BME280;70809;52.184;13.422;2023-06-26T01:28:41;101233.13;;;23.19;56.48
81352;BME280;70809;52.184;13.422;2023-06-26T01:29:13;101233.13;;;23.19;56.35
81352;BME280;70809;52.184;13.422;2023-06-26T01:29:45;101235.75;;;23.20;56.35
81352;BME280;70809;52.184;13.422;2023-06-26T01:30:16;101234.88;;;23.20;56.28
81352;BME280;70809;52.184;13.422;2023-06-26T01:30:47;101235.75;;;23.20;56.28
81352;BME280;70809;52.184;13.422;2023-06-26T01:31:19;101237.56;;;23.20;56.37
81352;BME280;70809;52.184;13.422;2023-06-26T01:31:49;101230.31;;;23.22;56.35
81352;BME280;70809;52.184;13.422;2023-06-26T01:32:20;101232.19;;;23.20;56.41
81352;BME280;70809;52.184;13.422;2023-06-26T01:32:51;101235.69;;;23.22;56.27
81352;BME280;70809;52.184;13.422;2023-06-26T01:33:21;101233.06;;;23.20;56.23
81352;BME280;70809;52.184;13.422;2023-06-26T01:33:52;101234.88;;;23.20;56.30
81352;BME280;70809;52.184;13.422;2023-06-26T01:34:22;101233.13;;;23.19;56.33
81352;BME280;70809;52.184;13.422;2023-06-26T01:34:53;101231.25;;;23.21;56.19
81352;BME280;70809;52.184;13.422;2023-06-26T01:35:23;101231.25;;;23.21;56.27
81352;BME280;70809;52.184;13.422;2023-06-26T01:35:54;101230.34;;;23.20;56.31
81352;BME280;70809;52.184;13.422;2023-06-26T01:36:25;101234.88;;;23.20;56.34
81352;BME280;70809;52.184;13.422;2023-06-26T01:36:55;101224.97;;;23.20;56.33
81352;BME280;70809;52.184;13.422;2023-06-26T01:37:26;101225.84;;;23.21;56.16
81352;BME280;70809;52.184;13.422;2023-06-26T01:38:11;101226.84;;;23.17;56.39
81352;BME280;70809;52.184;13.422;2023-06-26T01:38:41;101229.47;;;23.20;56.22
81352;BME280;70809;52.184;13.422;2023-06-26T01:39:14;101233.94;;;23.21;56.22
81352;BME280;70809;52.184;13.422;2023-06-26T01:39:44;101233.31;;;23.13;56.47
81352;BME280;70809;52.184;13.422;2023-06-26T01:40:15;101232.25;;;23.17;56.39
81352;BME280;70809;52.184;13.422;2023-06-26T01:40:45;101225.97;;;23.18;56.32
81352;BME280;70809;52.184;13.422;2023-06-26T01:41:16;101223.22;;;23.19;56.18
81352;BME280;70809;52.184;13.422;2023-06-26T01:41:48;101226.78;;;23.20;56.21
81352;BME280;70809;52.184;13.422;2023-06-26T01:42:18;101224.09;;;23.20;56.34
81352;BME280;70809;52.184;13.422;2023-06-26T01:42:49;101221.34;;;23.21;56.03
81352;BME280;70809;52.184;13.422;2023-06-26T01:43:25;101230.31;;;23.22;56.06
81352;BME280;70809;52.184;13.422;2023-06-26T01:44:04;101227.59;;;23.22;56.09
81352;BME280;70809;52.184;13.422;2023-06-26T01:44:43;101223.09;;;23.22;56.14
81352;BME280;70809;52.184;13.422;2023-06-26T01:45:23;101225.75;;;23.24;56.08
81352;BME280;70809;52.184;13.422;2023-06-26T01:45:58;101229.41;;;23.23;56.22
81352;BME280;70809;52.184;13.422;2023-06-26T01:46:34;101220.38;;;23.24;56.11
81352;BME280;70809;52.184;13.422;2023-06-26T01:47:06;101221.34;;;23.21;56.11
81352;BME280;70809;52.184;13.422;2023-06-26T01:47:40;101224.09;;;23.20;56.22
81352;BME280;70809;52.184;13.422;2023-06-26T01:48:14;101225.97;;;23.18;56.31
81352;BME280;70809;52.184;13.422;2023-06-26T01:48:50;101221.44;;;23.18;56.35
81352;BME280;70809;52.184;13.422;2023-06-26T01:49:31;101222.38;;;23.17;56.44
81352;BME280;70809;52.184;13.422;2023-06-26T01:50:06;101214.28;;;23.17;56.22
81352;BME280;70809;52.184;13.422;2023-06-26T01:50:39;101218.78;;;23.17;56.26
81352;BME280;70809;52.184;13.422;2023-06-26T01:51:10;101216.94;;;23.19;56.22
81352;BME280;70809;52.184;13.422;2023-06-26T01:51:46;101217.00;;;23.17;56.21
81352;BME280;70809;52.184;13.422;2023-06-26T01:52:21;101211.53;;;23.19;56.17
81352;BME280;70809;52.184;13.422;2023-06-26T01:52:58;101215.19;;;23.18;56.26
81352;BME280;70809;52.184;13.422;2023-06-26T01:53:35;101214.28;;;23.17;56.21
81352;BME280;70809;52.184;13.422;2023-06-26T01:54:10;101219.69;;;23.17;56.39
81352;BME280;70809;52.184;13.422;2023-06-26T01:54:49;101217.00;;;23.16;56.40
81352;BME280;70809;52.184;13.422;2023-06-26T01:55:28;101212.50;;;23.16;56.29
81352;BME280;70809;52.184;13.422;2023-06-26T01:56:00;101218.78;;;23.17;56.25
81352;BME280;70809;52.184;13.422;2023-06-26T01:56:37;101217.00;;;23.16;56.46
81352;BME280;70809;52.184;13.422;2023-06-26T01:57:10;101216.13;;;23.15;56.40
81352;BME280;70809;52.184;13.422;2023-06-26T01:57:41;101225.06;;;23.17;56.37
81352;BME280;70809;52.184;13.422;2023-06-26T01:58:13;101212.50;;;23.16;56.40
81352;BME280;70809;52.184;13.422;2023-06-26T01:58:46;101217.00;;;23.16;56.36
81352;BME280;70809;52.184;13.422;2023-06-26T01:59:17;101212.50;;;23.16;56.39
81352;BME280;70809;52.184;13.422;2023-06-26T01:59:51;101222.41;;;23.16;56.30
81352;BME280;70809;52.184;13.422;2023-06-26T02:00:23;101208.94;;;23.16;56.38
81352;BME280;70809;52.184;13.422;2023-06-26T02:00:54;101215.19;;;23.16;56.38
81352;BME280;70809;52.184;13.422;2023-06-26T02:01:25;101215.19;;;23.16;56.40
81352;BME280;70809;52.184;13.422;2023-06-26T02:01:55;101211.59;;;23.17;56.26
81352;BME280;70809;52.184;13.422;2023-06-26T02:02:25;101209.81;;;23.16;56.17
81352;BME280;70809;52.184;13.422;2023-06-26T02:02:57;101209.88;;;23.15;56.39
81352;BME280;70809;52.184;13.422;2023-06-26T02:03:27;101204.47;;;23.15;56.28
81352;BME280;70809;52.184;13.422;2023-06-26T02:03:58;101217.00;;;23.16;56.44
81352;BME280;70809;52.184;13.422;2023-06-26T02:04:28;101209.81;;;23.16;56.34
81352;BME280;70809;52.184;13.422;2023-06-26T02:04:58;101209.81;;;23.16;56.29
81352;BME280;70809;52.184;13.422;2023-06-26T02:05:29;101214.31;;;23.16;56.24
81352;BME280;70809;52.184;13.422;2023-06-26T02:05:59;101203.53;;;23.16;56.36
81352;BME280;70809;52.184;13.422;2023-06-26T02:06:29;101207.16;;;23.15;56.27
81352;BME280;70809;52.184;13.422;2023-06-26T02:06:59;101212.56;;;23.15;56.35
81352;BME280;70809;52.184;13.422;2023-06-26T02:07:30;101201.72;;;23.16;56.26
81352;BME280;70809;52.184;13.422;2023-06-26T02:08:00;101205.34;;;23.15;56.33
81352;BME280;70809;52.184;13.422;2023-06-26T02:08:30;101200.91;;;23.14;56.25
81352;BME280;70809;52.184;13.422;2023-06-26T02:09:01;101203.59;;;23.14;56.27
81352;BME280;70809;52.184;13.422;2023-06-26T02:09:31;101209.88;;;23.15;56.17
81352;BME280;70809;52.184;13.422;2023-06-26T02:10:02;101203.53;;;23.16;56.32
81352;BME280;70809;52.184;13.422;2023-06-26T02:10:32;101209.88;;;23.15;56.33
81352;BME280;70809;52.184;13.422;2023-06-26T02:11:02;101204.47;;;23.15;56.28
81352;BME280;70809;52.184;13.422;2023-06-26T02:11:33;101205.34;;;23.15;56.15
81352;BME280;70809;52.184;13.422;2023-06-26T02:12:04;101208.94;;;23.16;56.24
81352;BME280;70809;52.184;13.422;2023-06-26T02:12:37;101210.69;;;23.17;56.13
81352;BME280;70809;52.184;13.422;2023-06-26T02:13:07;101207.09;;;23.18;56.03
81352;BME280;70809;52.184;13.422;2023-06-26T02:13:37;101204.38;;;23.18;56.10
81352;BME280;70809;52.184;13.422;2023-06-26T02:14:08;101206.16;;;23.19;56.05
81352;BME280;70809;52.184;13.422;2023-06-26T02:14:38;101205.22;;;23.20;56.15
81352;BME280;70809;52.184;13.422;2023-06-26T02:15:09;101202.53;;;23.20;56.04
81352;BME280;70809;52.184;13.422;2023-06-26T02:15:39;101206.16;;;23.19;55.94
81352;BME280;70809;52.184;13.422;2023-06-26T02:16:09;101202.53;;;23.20;56.07
81352;BME280;70809;52.184;13.422;2023-06-26T02:16:40;101200.69;;;23.20;56.04
81352;BME280;70809;52.184;13.422;2023-06-26T02:17:10;101210.56;;;23.21;55.95
81352;BME280;70809;52.184;13.422;2023-06-26T02:17:40;101210.66;;;23.18;56.13
81352;BME280;70809;52.184;13.422;2023-06-26T02:18:11;101208.97;;;23.14;56.11
81352;BME280;70809;52.184;13.422;2023-06-26T02:18:41;101213.50;;;23.14;56.28
81352;BME280;70809;52.184;13.422;2023-06-26T02:19:11;101206.34;;;23.13;56.40
81352;BME280;70809;52.184;13.422;2023-06-26T02:19:42;101213.50;;;23.14;56.19
81352;BME280;70809;52.184;13.422;2023-06-26T02:20:12;101211.63;;;23.16;56.26
81352;BME280;70809;52.184;13.422;2023-06-26T02:20:42;101208.94;;;23.16;56.19
81352;BME280;70809;52.184;13.422;2023-06-26T02:21:13;101206.22;;;23.16;56.16
81352;BME280;70809;52.184;13.422;2023-06-26T02:21:43;101211.63;;;23.16;56.12
81352;BME280;70809;52.184;13.422;2023-06-26T02:22:14;101209.81;;;23.16;56.07
81352;BME280;70809;52.184;13.422;2023-06-26T02:22:44;101204.47;;;23.15;56.20
81352;BME280;70809;52.184;13.422;2023-06-26T02:23:14;101200.03;;;23.14;56.24
81352;BME280;70809;52.184;13.422;2023-06-26T02:23:45;101208.97;;;23.14;56.13
81352;BME280;70809;52.184;13.422;2023-06-26T02:24:15;101208.03;;;23.15;56.25
81352;BME280;70809;52.184;13.422;2023-06-26T02:24:46;101206.22;;;23.16;56.05
81352;BME280;70809;52.184;13.422;2023-06-26T02:25:17;101208.00;;;23.17;56.08
81352;BME280;70809;52.184;13.422;2023-06-26T02:25:47;101204.47;;;23.15;56.24
81352;BME280;70809;52.184;13.422;2023-06-26T02:26:18;101199.97;;;23.15;56.28
81352;BME280;70809;52.184;13.422;2023-06-26T02:26:48;101204.47;;;23.15;56.17
81352;BME280;70809;52.184;13.422;2023-06-26T02:27:18;101199.97;;;23.15;56.15
81352;BME280;70809;52.184;13.422;2023-06-26T02:27:50;101201.78;;;23.15;56.02
81352;BME280;70809;52.184;13.422;2023-06-26T02:28:20;101205.41;;;23.14;56.14
81352;BME280;70809;52.184;13.422;2023-06-26T02:28:51;101200.03;;;23.14;56.25
81352;BME280;70809;52.184;13.422;2023-06-26T02:29:21;101197.31;;;23.14;56.21
81352;BME280;70809;52.184;13.422;2023-06-26T02:29:51;101197.31;;;23.14;56.14
81352;BME280;70809;52.184;13.422;2023-06-26T02:30:21;101205.41;;;23.14;56.09
81352;BME280;70809;52.184;13.422;2023-06-26T02:30:52;101206.22;;;23.16;56.26
81352;BME280;70809;52.184;13.422;2023-06-26T02:31:22;101203.59;;;23.14;56.17
81352;BME280;70809;52.184;13.422;2023-06-26T02:31:52;101202.66;;;23.15;56.11
81352;BME280;70809;52.184;13.422;2023-06-26T02:32:23;101207.09;;;23.16;56.06
81352;BME280;70809;52.184;13.422;2023-06-26T02:32:53;101202.59;;;23.17;56.04
81352;BME280;70809;52.184;13.422;2023-06-26T02:33:23;101199.06;;;23.15;56.12
81352;BME280;70809;52.184;13.422;2023-06-26T02:33:54;101200.91;;;23.14;56.21
81352;BME280;70809;52.184;13.422;2023-06-26T02:34:24;101197.31;;;23.14;56.14
81352;BME280;70809;52.184;13.422;2023-06-26T02:34:54;101195.44;;;23.16;56.01
81352;BME280;70809;52.184;13.422;2023-06-26T02:35:25;101195.44;;;23.16;56.16
81352;BME280;70809;52.184;13.422;2023-06-26T02:35:55;101195.44;;;23.16;56.06
81352;BME280;70809;52.184;13.422;2023-06-26T02:36:25;101201.78;;;23.15;56.09
81352;BME280;70809;52.184;13.422;2023-06-26T02:36:56;101208.03;;;23.15;55.96
81352;BME280;70809;52.184;13.422;2023-06-26T02:37:26;101199.06;;;23.15;56.11
81352;BME280;70809;52.184;13.422;2023-06-26T02:37:56;101208.03;;;23.15;56.04
81352;BME280;70809;52.184;13.422;2023-06-26T02:38:26;101204.41;;;23.16;56.00
81352;BME280;70809;52.184;13.422;2023-06-26T02:38:57;101195.44;;;23.16;55.93
81352;BME280;70809;52.184;13.422;2023-06-26T02:39:27;101199.03;;;23.16;56.05
81352;BME280;70809;52.184;13.422;2023-06-26T02:39:58;101201.78;;;23.15;56.01
81352;BME280;70809;52.184;13.422;2023-06-26T02:40:28;101197.25;;;23.15;56.14
81352;BME280;70809;52.184;13.422;2023-06-26T02:40:58;101201.72;;;23.16;56.01
81352;BME280;70809;52.184;13.422;2023-06-26T02:41:28;101191.00;;;23.15;56.11